Etusivu
METAR-TAF:

METAR-TAF

Lentoasemat :

Ghriss, Algeria

Leveyspiiri: 35-12N, Pituuspiiri: 000-08E, korkeus merenpinnasta: 514 m

Tämänhetkinen sää

Tämä raportti tehtiin 30 minuuttia sitten, kello 19.00 UTC
Tuuli 3 kn etelästä/kaakosta
Lämpötila 26°C
Kosteus 39%
Ilmanpaine 1017 hPa
Näkyvyys: 8000 m
Muutamia pilviä 3000 ft:n korkeudessa, Cumulonimbus.
Hajanaisia pilviä 3000 ft:n korkeudessa

METAR: DAOV 281900Z 16003KT 8000 FEW030CB SCT030 26/11 Q1017 RETS

Aika: 20:30 (19:30 UTC)

Sääennuste

Tämä raportti tehtiin 2 tuntia ja 30 minuuttia sitten, kello 17.00 UTC
Ennuste voimassa 28. päivästä klo 18 UTC - 29. päivään klo 03 UTC
Tuuli 10 kn idästä/kaakosta
Näkyvyys: 8000 m
Muutamia pilviä 3000 ft:n korkeudessa, Cumulonimbus.
Hajonneita pilviä 3000 ft:n korkeudessa
Ajoittain
28. päivästä klo 18 UTC - 28. päivään klo 22 UTC
ukkosmyrsky, heikkoa sadetta

TAF: DAOV 281700Z 2818/2903 12010KT 8000 FEW030CB BKN030 TEMPO 2818/2822 -TSRA

Säähavainnot ja -ennusteet yli 4000 lentoasemalta (METAR- ja TAF-raportit).

Käytössä olevat sääasemat on merkitty karttaan keltaisilla ja punaisilla pisteillä.

Aseta hiiri pisteen päälle nähdäksesi sääaseman nimen.

Klikkaa sitten nähdäksesi säähavainnot ja -ennusteet.

Kartan vaihtaminen: klikkaa mustalla rastilla varustettuja vihreitä pisteitä, niin voit zoomata sisään; viivalla varustettua vihreää pistettä, niin voit zoomata ulos tai vihreitä nuolia, niin pääset viereisille kartoille.


METAR-TAF: